sensor_id;sensor_type;location;lat;lon;timestamp;P1;durP1;ratioP1;P2;durP2;ratioP2
11334;SDS011;5722;42.620;23.374;2023-05-29T00:01:46;12.37;;;5.80;;
11334;SDS011;5722;42.620;23.374;2023-05-29T00:04:14;10.40;;;7.73;;
11334;SDS011;5722;42.620;23.374;2023-05-29T00:06:43;13.87;;;8.80;;
11334;SDS011;5722;42.620;23.374;2023-05-29T00:09:11;16.93;;;12.00;;
11334;SDS011;5722;42.620;23.374;2023-05-29T00:11:39;23.63;;;15.63;;
11334;SDS011;5722;42.620;23.374;2023-05-29T00:14:12;14.70;;;10.50;;
11334;SDS011;5722;42.620;23.374;2023-05-29T00:16:50;16.23;;;8.80;;
11334;SDS011;5722;42.620;23.374;2023-05-29T00:19:23;9.47;;;6.27;;
11334;SDS011;5722;42.620;23.374;2023-05-29T00:21:58;9.07;;;5.57;;
11334;SDS011;5722;42.620;23.374;2023-05-29T00:24:25;11.40;;;6.00;;
11334;SDS011;5722;42.620;23.374;2023-05-29T00:26:53;7.83;;;6.87;;
11334;SDS011;5722;42.620;23.374;2023-05-29T00:29:24;5.67;;;5.00;;
11334;SDS011;5722;42.620;23.374;2023-05-29T00:31:54;9.87;;;5.43;;
11334;SDS011;5722;42.620;23.374;2023-05-29T00:34:22;11.50;;;5.90;;
11334;SDS011;5722;42.620;23.374;2023-05-29T00:36:50;8.23;;;5.87;;
11334;SDS011;5722;42.620;23.374;2023-05-29T00:39:28;9.63;;;6.10;;
11334;SDS011;5722;42.620;23.374;2023-05-29T00:41:58;9.17;;;5.97;;
11334;SDS011;5722;42.620;23.374;2023-05-29T00:44:26;8.00;;;5.70;;
11334;SDS011;5722;42.620;23.374;2023-05-29T00:47:15;9.60;;;5.77;;
11334;SDS011;5722;42.620;23.374;2023-05-29T00:49:46;9.07;;;5.53;;
11334;SDS011;5722;42.620;23.374;2023-05-29T00:52:16;7.47;;;6.00;;
11334;SDS011;5722;42.620;23.374;2023-05-29T00:54:50;7.20;;;6.50;;
11334;SDS011;5722;42.620;23.374;2023-05-29T00:57:19;7.27;;;6.03;;
11334;SDS011;5722;42.620;23.374;2023-05-29T00:59:48;7.53;;;6.10;;
11334;SDS011;5722;42.620;23.374;2023-05-29T01:02:25;9.40;;;6.17;;
11334;SDS011;5722;42.620;23.374;2023-05-29T01:05:00;9.87;;;6.20;;
11334;SDS011;5722;42.620;23.374;2023-05-29T01:07:32;7.33;;;6.17;;
11334;SDS011;5722;42.620;23.374;2023-05-29T01:12:47;7.67;;;6.30;;
11334;SDS011;5722;42.620;23.374;2023-05-29T01:15:24;12.93;;;6.93;;
11334;SDS011;5722;42.620;23.374;2023-05-29T01:18:19;10.50;;;6.30;;
11334;SDS011;5722;42.620;23.374;2023-05-29T01:21:00;10.30;;;5.73;;
11334;SDS011;5722;42.620;23.374;2023-05-29T01:23:52;7.27;;;6.53;;
11334;SDS011;5722;42.620;23.374;2023-05-29T01:29:41;9.87;;;6.30;;
11334;SDS011;5722;42.620;23.374;2023-05-29T01:32:15;9.43;;;6.67;;
11334;SDS011;5722;42.620;23.374;2023-05-29T01:34:46;8.00;;;6.57;;
11334;SDS011;5722;42.620;23.374;2023-05-29T01:37:16;10.20;;;6.70;;
11334;SDS011;5722;42.620;23.374;2023-05-29T01:39:44;7.10;;;6.40;;
11334;SDS011;5722;42.620;23.374;2023-05-29T01:42:15;7.50;;;6.67;;
11334;SDS011;5722;42.620;23.374;2023-05-29T01:44:44;8.87;;;6.47;;
11334;SDS011;5722;42.620;23.374;2023-05-29T01:47:12;8.33;;;6.67;;
11334;SDS011;5722;42.620;23.374;2023-05-29T01:49:45;9.67;;;6.90;;
11334;SDS011;5722;42.620;23.374;2023-05-29T01:52:17;10.40;;;6.83;;
11334;SDS011;5722;42.620;23.374;2023-05-29T01:54:55;8.67;;;7.57;;
11334;SDS011;5722;42.620;23.374;2023-05-29T01:57:32;9.87;;;8.23;;
11334;SDS011;5722;42.620;23.374;2023-05-29T02:00:07;11.63;;;8.27;;
11334;SDS011;5722;42.620;23.374;2023-05-29T02:02:37;11.30;;;8.47;;
11334;SDS011;5722;42.620;23.374;2023-05-29T02:05:08;9.10;;;8.20;;
11334;SDS011;5722;42.620;23.374;2023-05-29T02:07:38;8.93;;;8.10;;
11334;SDS011;5722;42.620;23.374;2023-05-29T02:10:06;8.70;;;7.77;;
11334;SDS011;5722;42.620;23.374;2023-05-29T02:12:38;9.60;;;7.60;;
11334;SDS011;5722;42.620;23.374;2023-05-29T02:15:10;8.83;;;7.77;;
11334;SDS011;5722;42.620;23.374;2023-05-29T02:17:40;10.40;;;8.10;;
11334;SDS011;5722;42.620;23.374;2023-05-29T02:20:09;9.87;;;7.87;;
11334;SDS011;5722;42.620;23.374;2023-05-29T02:22:39;11.83;;;7.70;;
11334;SDS011;5722;42.620;23.374;2023-05-29T02:25:09;10.07;;;8.33;;
11334;SDS011;5722;42.620;23.374;2023-05-29T02:27:41;10.13;;;8.13;;
11334;SDS011;5722;42.620;23.374;2023-05-29T02:30:11;10.20;;;8.53;;
11334;SDS011;5722;42.620;23.374;2023-05-29T02:32:43;10.20;;;8.10;;
11334;SDS011;5722;42.620;23.374;2023-05-29T02:35:10;10.83;;;8.20;;
11334;SDS011;5722;42.620;23.374;2023-05-29T02:37:42;11.43;;;7.83;;
11334;SDS011;5722;42.620;23.374;2023-05-29T02:40:11;8.47;;;7.67;;
11334;SDS011;5722;42.620;23.374;2023-05-29T02:42:39;9.23;;;8.30;;
11334;SDS011;5722;42.620;23.374;2023-05-29T02:45:09;8.03;;;7.20;;
11334;SDS011;5722;42.620;23.374;2023-05-29T02:47:40;12.23;;;8.27;;
11334;SDS011;5722;42.620;23.374;2023-05-29T02:50:12;9.67;;;7.60;;
11334;SDS011;5722;42.620;23.374;2023-05-29T02:52:45;9.27;;;7.20;;
11334;SDS011;5722;42.620;23.374;2023-05-29T02:55:14;9.10;;;6.77;;
11334;SDS011;5722;42.620;23.374;2023-05-29T02:57:49;8.97;;;7.17;;
11334;SDS011;5722;42.620;23.374;2023-05-29T03:00:20;13.27;;;6.93;;
11334;SDS011;5722;42.620;23.374;2023-05-29T03:02:48;11.60;;;7.43;;
11334;SDS011;5722;42.620;23.374;2023-05-29T03:05:19;8.23;;;7.40;;
11334;SDS011;5722;42.620;23.374;2023-05-29T03:07:46;7.60;;;6.90;;
11334;SDS011;5722;42.620;23.374;2023-05-29T03:10:16;8.07;;;7.20;;
11334;SDS011;5722;42.620;23.374;2023-05-29T03:12:45;7.73;;;6.70;;
11334;SDS011;5722;42.620;23.374;2023-05-29T03:15:15;11.03;;;6.87;;
11334;SDS011;5722;42.620;23.374;2023-05-29T03:17:46;7.20;;;6.20;;
11334;SDS011;5722;42.620;23.374;2023-05-29T03:20:17;7.23;;;6.43;;
11334;SDS011;5722;42.620;23.374;2023-05-29T03:22:45;7.43;;;6.70;;
11334;SDS011;5722;42.620;23.374;2023-05-29T03:25:14;10.20;;;6.63;;
11334;SDS011;5722;42.620;23.374;2023-05-29T03:27:44;9.00;;;7.13;;
11334;SDS011;5722;42.620;23.374;2023-05-29T03:30:21;10.30;;;7.20;;
11334;SDS011;5722;42.620;23.374;2023-05-29T03:32:48;8.37;;;6.70;;
11334;SDS011;5722;42.620;23.374;2023-05-29T03:35:18;9.33;;;7.13;;
11334;SDS011;5722;42.620;23.374;2023-05-29T03:37:46;8.67;;;6.80;;
11334;SDS011;5722;42.620;23.374;2023-05-29T03:40:19;7.03;;;6.33;;
11334;SDS011;5722;42.620;23.374;2023-05-29T03:42:47;10.10;;;7.27;;
11334;SDS011;5722;42.620;23.374;2023-05-29T03:45:15;10.33;;;7.10;;
11334;SDS011;5722;42.620;23.374;2023-05-29T03:47:50;9.80;;;7.70;;
11334;SDS011;5722;42.620;23.374;2023-05-29T03:50:18;11.27;;;7.23;;
11334;SDS011;5722;42.620;23.374;2023-05-29T03:52:46;10.63;;;6.60;;
11334;SDS011;5722;42.620;23.374;2023-05-29T03:56:10;7.83;;;7.13;;
11334;SDS011;5722;42.620;23.374;2023-05-29T03:58:52;8.40;;;7.13;;
11334;SDS011;5722;42.620;23.374;2023-05-29T04:01:27;10.60;;;7.40;;
11334;SDS011;5722;42.620;23.374;2023-05-29T04:04:00;10.73;;;7.50;;
11334;SDS011;5722;42.620;23.374;2023-05-29T04:06:34;7.50;;;6.70;;
11334;SDS011;5722;42.620;23.374;2023-05-29T04:09:26;8.13;;;6.47;;
11334;SDS011;5722;42.620;23.374;2023-05-29T04:11:56;10.50;;;6.23;;
11334;SDS011;5722;42.620;23.374;2023-05-29T04:14:32;7.97;;;5.83;;
11334;SDS011;5722;42.620;23.374;2023-05-29T04:19:48;8.67;;;5.70;;
11334;SDS011;5722;42.620;23.374;2023-05-29T04:22:18;9.97;;;5.13;;
11334;SDS011;5722;42.620;23.374;2023-05-29T04:24:51;9.40;;;5.68;;
11334;SDS011;5722;42.620;23.374;2023-05-29T04:27:25;7.68;;;5.72;;
11334;SDS011;5722;42.620;23.374;2023-05-29T04:29:58;7.38;;;5.75;;
11334;SDS011;5722;42.620;23.374;2023-05-29T04:35:24;5.82;;;5.28;;
11334;SDS011;5722;42.620;23.374;2023-05-29T04:38:18;6.22;;;5.63;;
11334;SDS011;5722;42.620;23.374;2023-05-29T04:40:50;7.43;;;5.05;;
11334;SDS011;5722;42.620;23.374;2023-05-29T04:43:23;5.18;;;4.68;;
11334;SDS011;5722;42.620;23.374;2023-05-29T04:46:06;7.50;;;4.88;;
11334;SDS011;5722;42.620;23.374;2023-05-29T04:51:33;5.88;;;4.70;;
11334;SDS011;5722;42.620;23.374;2023-05-29T04:57:07;7.60;;;5.13;;
11334;SDS011;5722;42.620;23.374;2023-05-29T04:59:56;7.13;;;5.88;;
11334;SDS011;5722;42.620;23.374;2023-05-29T05:02:46;9.13;;;6.80;;
11334;SDS011;5722;42.620;23.374;2023-05-29T05:05:28;5.82;;;4.65;;
11334;SDS011;5722;42.620;23.374;2023-05-29T05:07:59;7.03;;;4.55;;
11334;SDS011;5722;42.620;23.374;2023-05-29T05:10:27;5.22;;;4.60;;
11334;SDS011;5722;42.620;23.374;2023-05-29T05:13:00;9.77;;;4.15;;
11334;SDS011;5722;42.620;23.374;2023-05-29T05:19:28;12.15;;;4.55;;
11334;SDS011;5722;42.620;23.374;2023-05-29T05:22:04;10.50;;;4.70;;
11334;SDS011;5722;42.620;23.374;2023-05-29T05:24:38;5.93;;;3.83;;
11334;SDS011;5722;42.620;23.374;2023-05-29T05:27:07;12.88;;;4.00;;
11334;SDS011;5722;42.620;23.374;2023-05-29T05:29:50;8.32;;;4.07;;
11334;SDS011;5722;42.620;23.374;2023-05-29T05:32:26;5.35;;;3.33;;
11334;SDS011;5722;42.620;23.374;2023-05-29T05:34:56;5.65;;;4.05;;
11334;SDS011;5722;42.620;23.374;2023-05-29T05:40:10;7.53;;;4.50;;
11334;SDS011;5722;42.620;23.374;2023-05-29T05:42:50;9.30;;;4.05;;
11334;SDS011;5722;42.620;23.374;2023-05-29T05:45:33;4.05;;;3.30;;
11334;SDS011;5722;42.620;23.374;2023-05-29T05:48:03;10.68;;;3.80;;
11334;SDS011;5722;42.620;23.374;2023-05-29T05:50:36;5.85;;;3.50;;
11334;SDS011;5722;42.620;23.374;2023-05-29T05:53:13;11.13;;;5.68;;
11334;SDS011;5722;42.620;23.374;2023-05-29T05:58:29;9.90;;;5.40;;
11334;SDS011;5722;42.620;23.374;2023-05-29T06:01:32;8.05;;;5.30;;
11334;SDS011;5722;42.620;23.374;2023-05-29T06:04:24;11.05;;;4.63;;
11334;SDS011;5722;42.620;23.374;2023-05-29T06:07:11;9.88;;;5.35;;
11334;SDS011;5722;42.620;23.374;2023-05-29T06:12:37;7.70;;;5.60;;
11334;SDS011;5722;42.620;23.374;2023-05-29T06:15:30;9.48;;;6.47;;
11334;SDS011;5722;42.620;23.374;2023-05-29T06:18:19;16.05;;;7.07;;
11334;SDS011;5722;42.620;23.374;2023-05-29T06:21:13;13.00;;;7.22;;
11334;SDS011;5722;42.620;23.374;2023-05-29T06:23:43;10.90;;;6.72;;
11334;SDS011;5722;42.620;23.374;2023-05-29T06:32:01;10.00;;;5.93;;
11334;SDS011;5722;42.620;23.374;2023-05-29T06:37:18;11.70;;;6.20;;
11334;SDS011;5722;42.620;23.374;2023-05-29T06:40:06;9.05;;;5.45;;
11334;SDS011;5722;42.620;23.374;2023-05-29T06:42:53;8.10;;;5.20;;
11334;SDS011;5722;42.620;23.374;2023-05-29T06:45:38;12.57;;;5.38;;
11334;SDS011;5722;42.620;23.374;2023-05-29T06:48:43;8.68;;;5.22;;
11334;SDS011;5722;42.620;23.374;2023-05-29T06:51:25;6.43;;;4.65;;
11334;SDS011;5722;42.620;23.374;2023-05-29T06:54:13;6.90;;;4.30;;
11334;SDS011;5722;42.620;23.374;2023-05-29T07:02:59;5.15;;;3.90;;
11334;SDS011;5722;42.620;23.374;2023-05-29T07:08:19;3.85;;;3.20;;
11334;SDS011;5722;42.620;23.374;2023-05-29T07:11:04;3.60;;;3.00;;
11334;SDS011;5722;42.620;23.374;2023-05-29T07:13:40;4.05;;;2.75;;
11334;SDS011;5722;42.620;23.374;2023-05-29T07:19:01;4.28;;;2.88;;
11334;SDS011;5722;42.620;23.374;2023-05-29T07:21:30;3.53;;;2.20;;
11334;SDS011;5722;42.620;23.374;2023-05-29T07:24:15;3.58;;;2.55;;
11334;SDS011;5722;42.620;23.374;2023-05-29T07:26:56;2.75;;;2.40;;
11334;SDS011;5722;42.620;23.374;2023-05-29T07:29:38;3.95;;;2.88;;
11334;SDS011;5722;42.620;23.374;2023-05-29T07:35:07;4.65;;;2.58;;
11334;SDS011;5722;42.620;23.374;2023-05-29T07:37:38;5.55;;;3.15;;
11334;SDS011;5722;42.620;23.374;2023-05-29T07:40:14;4.57;;;2.65;;
11334;SDS011;5722;42.620;23.374;2023-05-29T07:42:49;5.40;;;2.88;;
11334;SDS011;5722;42.620;23.374;2023-05-29T07:45:40;8.10;;;3.08;;
11334;SDS011;5722;42.620;23.374;2023-05-29T07:48:20;4.75;;;2.80;;
11334;SDS011;5722;42.620;23.374;2023-05-29T07:50:49;4.10;;;2.67;;
11334;SDS011;5722;42.620;23.374;2023-05-29T07:53:49;3.58;;;3.17;;
11334;SDS011;5722;42.620;23.374;2023-05-29T07:56:19;4.72;;;3.15;;
11334;SDS011;5722;42.620;23.374;2023-05-29T07:59:26;3.65;;;2.88;;
11334;SDS011;5722;42.620;23.374;2023-05-29T08:01:56;5.25;;;2.80;;
11334;SDS011;5722;42.620;23.374;2023-05-29T08:13:20;3.10;;;2.80;;
11334;SDS011;5722;42.620;23.374;2023-05-29T08:19:10;3.58;;;2.95;;
11334;SDS011;5722;42.620;23.374;2023-05-29T08:21:43;4.22;;;3.13;;
11334;SDS011;5722;42.620;23.374;2023-05-29T08:24:23;5.88;;;2.95;;
11334;SDS011;5722;42.620;23.374;2023-05-29T08:29:53;4.35;;;3.03;;
11334;SDS011;5722;42.620;23.374;2023-05-29T08:32:25;3.22;;;2.92;;
11334;SDS011;5722;42.620;23.374;2023-05-29T08:35:02;4.20;;;3.00;;
11334;SDS011;5722;42.620;23.374;2023-05-29T08:37:47;5.20;;;3.10;;
11334;SDS011;5722;42.620;23.374;2023-05-29T08:40:24;3.40;;;3.08;;
11334;SDS011;5722;42.620;23.374;2023-05-29T08:43:07;5.07;;;3.00;;
11334;SDS011;5722;42.620;23.374;2023-05-29T08:45:46;4.15;;;3.40;;
11334;SDS011;5722;42.620;23.374;2023-05-29T08:48:27;9.98;;;3.67;;
11334;SDS011;5722;42.620;23.374;2023-05-29T08:50:58;4.60;;;3.10;;
11334;SDS011;5722;42.620;23.374;2023-05-29T08:53:33;9.45;;;3.63;;
11334;SDS011;5722;42.620;23.374;2023-05-29T08:56:07;4.55;;;3.60;;
11334;SDS011;5722;42.620;23.374;2023-05-29T08:59:13;25.60;;;4.30;;
11334;SDS011;5722;42.620;23.374;2023-05-29T09:02:01;3.78;;;3.35;;
11334;SDS011;5722;42.620;23.374;2023-05-29T09:04:45;3.33;;;2.88;;
11334;SDS011;5722;42.620;23.374;2023-05-29T09:07:18;5.28;;;3.20;;
11334;SDS011;5722;42.620;23.374;2023-05-29T09:09:51;4.65;;;3.00;;
11334;SDS011;5722;42.620;23.374;2023-05-29T09:12:24;4.15;;;3.38;;
11334;SDS011;5722;42.620;23.374;2023-05-29T09:14:57;10.73;;;3.60;;
11334;SDS011;5722;42.620;23.374;2023-05-29T09:17:30;5.18;;;3.17;;
11334;SDS011;5722;42.620;23.374;2023-05-29T09:20:15;5.70;;;3.25;;
11334;SDS011;5722;42.620;23.374;2023-05-29T09:22:46;6.30;;;3.20;;
11334;SDS011;5722;42.620;23.374;2023-05-29T09:25:24;4.35;;;3.20;;
11334;SDS011;5722;42.620;23.374;2023-05-29T09:27:57;4.60;;;3.30;;
11334;SDS011;5722;42.620;23.374;2023-05-29T09:30:56;11.07;;;3.00;;
11334;SDS011;5722;42.620;23.374;2023-05-29T09:33:26;4.13;;;2.88;;
11334;SDS011;5722;42.620;23.374;2023-05-29T09:36:20;5.38;;;3.10;;
11334;SDS011;5722;42.620;23.374;2023-05-29T09:39:01;6.15;;;3.00;;
11334;SDS011;5722;42.620;23.374;2023-05-29T09:41:41;3.42;;;2.88;;
11334;SDS011;5722;42.620;23.374;2023-05-29T09:44:13;7.20;;;3.13;;
11334;SDS011;5722;42.620;23.374;2023-05-29T09:49:35;7.60;;;2.78;;
11334;SDS011;5722;42.620;23.374;2023-05-29T09:52:22;2.95;;;2.65;;
11334;SDS011;5722;42.620;23.374;2023-05-29T09:54:58;5.88;;;3.30;;
11334;SDS011;5722;42.620;23.374;2023-05-29T09:57:27;4.25;;;3.15;;
11334;SDS011;5722;42.620;23.374;2023-05-29T10:00:02;3.85;;;3.20;;
11334;SDS011;5722;42.620;23.374;2023-05-29T10:02:42;5.65;;;3.25;;
11334;SDS011;5722;42.620;23.374;2023-05-29T10:05:10;3.85;;;3.00;;
11334;SDS011;5722;42.620;23.374;2023-05-29T10:07:50;7.35;;;3.20;;
11334;SDS011;5722;42.620;23.374;2023-05-29T10:10:23;5.55;;;3.47;;
11334;SDS011;5722;42.620;23.374;2023-05-29T10:13:07;4.43;;;2.83;;
11334;SDS011;5722;42.620;23.374;2023-05-29T10:15:39;6.22;;;3.28;;
11334;SDS011;5722;42.620;23.374;2023-05-29T10:21:10;4.95;;;3.05;;
11334;SDS011;5722;42.620;23.374;2023-05-29T10:23:40;5.00;;;3.22;;
11334;SDS011;5722;42.620;23.374;2023-05-29T10:26:25;4.15;;;3.20;;
11334;SDS011;5722;42.620;23.374;2023-05-29T10:29:08;4.75;;;3.40;;
11334;SDS011;5722;42.620;23.374;2023-05-29T10:31:58;7.88;;;2.90;;
11334;SDS011;5722;42.620;23.374;2023-05-29T10:34:41;4.65;;;3.17;;
11334;SDS011;5722;42.620;23.374;2023-05-29T10:37:18;4.63;;;3.20;;
11334;SDS011;5722;42.620;23.374;2023-05-29T10:39:55;4.28;;;3.20;;
11334;SDS011;5722;42.620;23.374;2023-05-29T10:42:43;3.40;;;2.90;;
11334;SDS011;5722;42.620;23.374;2023-05-29T10:48:43;5.75;;;3.47;;
11334;SDS011;5722;42.620;23.374;2023-05-29T10:51:28;9.68;;;4.32;;
11334;SDS011;5722;42.620;23.374;2023-05-29T10:54:01;8.55;;;3.97;;
11334;SDS011;5722;42.620;23.374;2023-05-29T10:56:37;12.00;;;5.88;;
11334;SDS011;5722;42.620;23.374;2023-05-29T10:59:11;8.35;;;4.30;;
11334;SDS011;5722;42.620;23.374;2023-05-29T11:01:38;5.40;;;4.43;;
11334;SDS011;5722;42.620;23.374;2023-05-29T11:04:28;4.55;;;3.65;;
11334;SDS011;5722;42.620;23.374;2023-05-29T11:07:04;3.65;;;3.25;;
11334;SDS011;5722;42.620;23.374;2023-05-29T11:09:35;7.70;;;4.80;;
11334;SDS011;5722;42.620;23.374;2023-05-29T11:12:11;5.80;;;3.92;;
11334;SDS011;5722;42.620;23.374;2023-05-29T11:14:55;7.63;;;4.90;;
11334;SDS011;5722;42.620;23.374;2023-05-29T11:17:42;7.88;;;4.32;;
11334;SDS011;5722;42.620;23.374;2023-05-29T11:20:27;6.60;;;4.15;;
11334;SDS011;5722;42.620;23.374;2023-05-29T11:25:46;5.63;;;4.57;;
11334;SDS011;5722;42.620;23.374;2023-05-29T11:28:20;4.55;;;3.63;;
11334;SDS011;5722;42.620;23.374;2023-05-29T11:30:58;5.35;;;3.95;;
11334;SDS011;5722;42.620;23.374;2023-05-29T11:33:39;6.63;;;3.92;;
11334;SDS011;5722;42.620;23.374;2023-05-29T11:36:09;5.68;;;3.67;;
11334;SDS011;5722;42.620;23.374;2023-05-29T11:41:34;4.40;;;4.00;;
11334;SDS011;5722;42.620;23.374;2023-05-29T11:44:17;7.05;;;3.38;;
11334;SDS011;5722;42.620;23.374;2023-05-29T11:46:46;5.35;;;3.50;;
11334;SDS011;5722;42.620;23.374;2023-05-29T11:49:42;6.10;;;3.47;;
11334;SDS011;5722;42.620;23.374;2023-05-29T11:52:15;4.03;;;3.40;;
11334;SDS011;5722;42.620;23.374;2023-05-29T11:54:57;5.40;;;3.83;;
11334;SDS011;5722;42.620;23.374;2023-05-29T11:57:36;4.53;;;3.60;;
11334;SDS011;5722;42.620;23.374;2023-05-29T12:00:06;5.00;;;3.40;;
11334;SDS011;5722;42.620;23.374;2023-05-29T12:02:44;4.32;;;3.20;;
11334;SDS011;5722;42.620;23.374;2023-05-29T12:05:24;6.82;;;3.40;;
11334;SDS011;5722;42.620;23.374;2023-05-29T12:07:56;3.65;;;3.35;;
11334;SDS011;5722;42.620;23.374;2023-05-29T12:13:36;7.47;;;3.28;;
11334;SDS011;5722;42.620;23.374;2023-05-29T12:16:06;3.75;;;3.45;;
11334;SDS011;5722;42.620;23.374;2023-05-29T12:18:36;3.92;;;3.53;;
11334;SDS011;5722;42.620;23.374;2023-05-29T12:24:37;4.50;;;3.38;;
11334;SDS011;5722;42.620;23.374;2023-05-29T12:30:04;5.00;;;3.25;;
11334;SDS011;5722;42.620;23.374;2023-05-29T12:32:46;4.57;;;3.55;;
11334;SDS011;5722;42.620;23.374;2023-05-29T12:35:25;4.95;;;3.60;;
11334;SDS011;5722;42.620;23.374;2023-05-29T12:38:07;8.63;;;3.80;;
11334;SDS011;5722;42.620;23.374;2023-05-29T12:40:48;7.18;;;3.90;;
11334;SDS011;5722;42.620;23.374;2023-05-29T12:46:28;7.38;;;3.80;;
11334;SDS011;5722;42.620;23.374;2023-05-29T12:49:14;6.07;;;4.03;;
11334;SDS011;5722;42.620;23.374;2023-05-29T12:51:55;5.75;;;3.10;;
11334;SDS011;5722;42.620;23.374;2023-05-29T12:54:36;4.80;;;2.90;;
11334;SDS011;5722;42.620;23.374;2023-05-29T12:57:08;6.43;;;3.20;;
11334;SDS011;5722;42.620;23.374;2023-05-29T13:05:28;10.00;;;4.38;;
11334;SDS011;5722;42.620;23.374;2023-05-29T13:08:13;7.30;;;3.75;;
11334;SDS011;5722;42.620;23.374;2023-05-29T13:10:48;6.60;;;4.45;;
11334;SDS011;5722;42.620;23.374;2023-05-29T13:13:22;6.65;;;5.00;;
11334;SDS011;5722;42.620;23.374;2023-05-29T13:15:57;6.07;;;5.30;;
11334;SDS011;5722;42.620;23.374;2023-05-29T13:18:37;7.07;;;4.93;;
11334;SDS011;5722;42.620;23.374;2023-05-29T13:21:07;8.63;;;5.70;;
11334;SDS011;5722;42.620;23.374;2023-05-29T13:23:37;12.52;;;5.53;;
11334;SDS011;5722;42.620;23.374;2023-05-29T13:26:12;10.45;;;5.60;;
11334;SDS011;5722;42.620;23.374;2023-05-29T13:29:19;10.18;;;5.85;;
11334;SDS011;5722;42.620;23.374;2023-05-29T13:31:57;8.20;;;5.95;;
11334;SDS011;5722;42.620;23.374;2023-05-29T13:34:27;8.20;;;6.60;;
11334;SDS011;5722;42.620;23.374;2023-05-29T13:36:58;10.10;;;5.40;;
11334;SDS011;5722;42.620;23.374;2023-05-29T13:39:44;9.40;;;5.55;;
11334;SDS011;5722;42.620;23.374;2023-05-29T13:42:12;8.32;;;5.28;;
11334;SDS011;5722;42.620;23.374;2023-05-29T13:44:42;7.07;;;5.03;;
11334;SDS011;5722;42.620;23.374;2023-05-29T13:47:11;5.63;;;4.53;;
11334;SDS011;5722;42.620;23.374;2023-05-29T13:49:41;5.97;;;4.70;;
11334;SDS011;5722;42.620;23.374;2023-05-29T13:52:16;6.15;;;4.75;;
11334;SDS011;5722;42.620;23.374;2023-05-29T13:54:47;5.75;;;4.50;;
11334;SDS011;5722;42.620;23.374;2023-05-29T13:57:24;5.28;;;4.55;;
11334;SDS011;5722;42.620;23.374;2023-05-29T14:00:05;6.70;;;4.30;;
11334;SDS011;5722;42.620;23.374;2023-05-29T14:02:43;6.15;;;4.60;;
11334;SDS011;5722;42.620;23.374;2023-05-29T14:05:25;4.88;;;4.43;;
11334;SDS011;5722;42.620;23.374;2023-05-29T14:07:56;4.55;;;4.00;;
11334;SDS011;5722;42.620;23.374;2023-05-29T14:10:32;10.43;;;4.60;;
11334;SDS011;5722;42.620;23.374;2023-05-29T14:13:04;5.63;;;4.47;;
11334;SDS011;5722;42.620;23.374;2023-05-29T14:15:36;6.43;;;4.22;;
11334;SDS011;5722;42.620;23.374;2023-05-29T14:18:12;4.78;;;4.22;;
11334;SDS011;5722;42.620;23.374;2023-05-29T14:24:12;6.82;;;4.68;;
11334;SDS011;5722;42.620;23.374;2023-05-29T14:26:44;6.97;;;4.40;;
11334;SDS011;5722;42.620;23.374;2023-05-29T14:29:25;7.20;;;3.90;;
11334;SDS011;5722;42.620;23.374;2023-05-29T14:32:37;5.18;;;3.13;;
11334;SDS011;5722;42.620;23.374;2023-05-29T14:49:56;5.05;;;3.72;;
11334;SDS011;5722;42.620;23.374;2023-05-29T14:52:31;6.32;;;4.00;;
11334;SDS011;5722;42.620;23.374;2023-05-29T14:55:21;4.85;;;3.60;;
11334;SDS011;5722;42.620;23.374;2023-05-29T14:58:08;3.63;;;3.25;;
11334;SDS011;5722;42.620;23.374;2023-05-29T15:00:57;5.90;;;3.78;;
11334;SDS011;5722;42.620;23.374;2023-05-29T15:03:41;5.50;;;3.30;;
11334;SDS011;5722;42.620;23.374;2023-05-29T15:06:13;4.68;;;3.17;;
11334;SDS011;5722;42.620;23.374;2023-05-29T15:08:50;3.45;;;3.00;;
11334;SDS011;5722;42.620;23.374;2023-05-29T15:11:28;6.75;;;3.08;;
11334;SDS011;5722;42.620;23.374;2023-05-29T15:14:16;3.78;;;2.95;;
11334;SDS011;5722;42.620;23.374;2023-05-29T15:20:05;5.40;;;3.55;;
11334;SDS011;5722;42.620;23.374;2023-05-29T15:22:36;8.40;;;3.40;;
11334;SDS011;5722;42.620;23.374;2023-05-29T15:25:04;4.22;;;2.55;;
11334;SDS011;5722;42.620;23.374;2023-05-29T15:27:47;2.78;;;2.53;;
11334;SDS011;5722;42.620;23.374;2023-05-29T15:30:27;2.45;;;2.10;;
11334;SDS011;5722;42.620;23.374;2023-05-29T15:33:08;2.65;;;2.45;;
11334;SDS011;5722;42.620;23.374;2023-05-29T15:35:56;3.65;;;2.30;;
11334;SDS011;5722;42.620;23.374;2023-05-29T15:38:26;5.60;;;2.20;;
11334;SDS011;5722;42.620;23.374;2023-05-29T15:41:01;12.90;;;3.20;;
11334;SDS011;5722;42.620;23.374;2023-05-29T15:43:40;4.80;;;2.70;;
11334;SDS011;5722;42.620;23.374;2023-05-29T15:46:28;4.60;;;2.60;;
11334;SDS011;5722;42.620;23.374;2023-05-29T15:48:59;5.93;;;2.47;;
11334;SDS011;5722;42.620;23.374;2023-05-29T15:54:13;3.05;;;2.40;;
11334;SDS011;5722;42.620;23.374;2023-05-29T15:56:52;3.75;;;2.72;;
11334;SDS011;5722;42.620;23.374;2023-05-29T15:59:55;4.65;;;2.70;;
11334;SDS011;5722;42.620;23.374;2023-05-29T16:02:33;6.65;;;2.78;;
11334;SDS011;5722;42.620;23.374;2023-05-29T16:05:02;5.80;;;2.90;;
11334;SDS011;5722;42.620;23.374;2023-05-29T16:07:35;5.05;;;2.90;;
11334;SDS011;5722;42.620;23.374;2023-05-29T16:10:09;6.55;;;3.55;;
11334;SDS011;5722;42.620;23.374;2023-05-29T16:12:41;5.00;;;3.15;;
11334;SDS011;5722;42.620;23.374;2023-05-29T16:15:25;5.85;;;2.85;;
11334;SDS011;5722;42.620;23.374;2023-05-29T16:17:58;8.95;;;3.38;;
11334;SDS011;5722;42.620;23.374;2023-05-29T16:20:27;4.45;;;3.40;;
11334;SDS011;5722;42.620;23.374;2023-05-29T16:22:58;6.40;;;3.35;;
11334;SDS011;5722;42.620;23.374;2023-05-29T16:25:26;5.65;;;3.20;;
11334;SDS011;5722;42.620;23.374;2023-05-29T16:27:58;3.83;;;3.17;;
11334;SDS011;5722;42.620;23.374;2023-05-29T16:30:27;5.50;;;3.53;;
11334;SDS011;5722;42.620;23.374;2023-05-29T16:32:57;8.15;;;4.00;;
11334;SDS011;5722;42.620;23.374;2023-05-29T16:35:28;6.85;;;4.22;;
11334;SDS011;5722;42.620;23.374;2023-05-29T16:38:11;9.05;;;4.45;;
11334;SDS011;5722;42.620;23.374;2023-05-29T16:40:42;5.90;;;3.70;;
11334;SDS011;5722;42.620;23.374;2023-05-29T16:43:12;7.85;;;4.00;;
11334;SDS011;5722;42.620;23.374;2023-05-29T16:45:56;9.52;;;4.38;;
11334;SDS011;5722;42.620;23.374;2023-05-29T16:48:48;7.68;;;4.75;;
11334;SDS011;5722;42.620;23.374;2023-05-29T16:51:27;8.82;;;4.85;;
11334;SDS011;5722;42.620;23.374;2023-05-29T16:56:51;5.18;;;4.05;;
11334;SDS011;5722;42.620;23.374;2023-05-29T16:59:33;5.50;;;3.70;;
11334;SDS011;5722;42.620;23.374;2023-05-29T17:02:12;6.10;;;4.20;;
11334;SDS011;5722;42.620;23.374;2023-05-29T17:04:52;8.40;;;3.92;;
11334;SDS011;5722;42.620;23.374;2023-05-29T17:07:27;7.60;;;3.53;;
11334;SDS011;5722;42.620;23.374;2023-05-29T17:13:08;4.75;;;3.60;;
11334;SDS011;5722;42.620;23.374;2023-05-29T17:16:14;6.97;;;3.30;;
11334;SDS011;5722;42.620;23.374;2023-05-29T17:18:57;4.22;;;3.80;;
11334;SDS011;5722;42.620;23.374;2023-05-29T17:22:07;4.85;;;4.20;;
11334;SDS011;5722;42.620;23.374;2023-05-29T17:24:48;5.65;;;3.95;;
11334;SDS011;5722;42.620;23.374;2023-05-29T17:27:23;6.97;;;4.13;;
11334;SDS011;5722;42.620;23.374;2023-05-29T17:29:55;5.32;;;4.53;;
11334;SDS011;5722;42.620;23.374;2023-05-29T17:32:44;7.50;;;5.43;;
11334;SDS011;5722;42.620;23.374;2023-05-29T17:35:29;8.50;;;5.03;;
11334;SDS011;5722;42.620;23.374;2023-05-29T17:38:04;7.47;;;4.43;;
11334;SDS011;5722;42.620;23.374;2023-05-29T17:40:47;6.35;;;4.78;;
11334;SDS011;5722;42.620;23.374;2023-05-29T17:46:36;8.23;;;4.65;;
11334;SDS011;5722;42.620;23.374;2023-05-29T17:49:10;6.38;;;5.18;;
11334;SDS011;5722;42.620;23.374;2023-05-29T17:51:51;8.52;;;5.15;;
11334;SDS011;5722;42.620;23.374;2023-05-29T17:54:30;5.72;;;5.13;;
11334;SDS011;5722;42.620;23.374;2023-05-29T17:57:40;11.00;;;7.18;;